sensor_id;sensor_type;location;lat;lon;timestamp;temperature;humidity
52787;DHT22;38661;53.152;5.846;2023-03-03T00:00:58;2.20;89.80
52787;DHT22;38661;53.152;5.846;2023-03-03T00:03:25;2.20;89.60
52787;DHT22;38661;53.152;5.846;2023-03-03T00:05:52;2.10;89.40
52787;DHT22;38661;53.152;5.846;2023-03-03T00:08:19;2.00;89.30
52787;DHT22;38661;53.152;5.846;2023-03-03T00:10:46;1.90;89.20
52787;DHT22;38661;53.152;5.846;2023-03-03T00:13:16;1.80;89.10
52787;DHT22;38661;53.152;5.846;2023-03-03T00:15:42;1.70;89.10
52787;DHT22;38661;53.152;5.846;2023-03-03T00:18:20;1.70;89.20
52787;DHT22;38661;53.152;5.846;2023-03-03T00:20:57;1.60;89.20
52787;DHT22;38661;53.152;5.846;2023-03-03T00:23:29;1.60;89.30
52787;DHT22;38661;53.152;5.846;2023-03-03T00:25:57;1.50;89.30
52787;DHT22;38661;53.152;5.846;2023-03-03T00:28:52;1.50;89.40
52787;DHT22;38661;53.152;5.846;2023-03-03T00:31:35;1.40;89.30
52787;DHT22;38661;53.152;5.846;2023-03-03T00:34:25;1.40;89.30
52787;DHT22;38661;53.152;5.846;2023-03-03T00:36:53;1.30;89.20
52787;DHT22;38661;53.152;5.846;2023-03-03T00:42:01;1.20;89.20
52787;DHT22;38661;53.152;5.846;2023-03-03T00:44:44;1.20;89.10
52787;DHT22;38661;53.152;5.846;2023-03-03T00:49:53;1.10;89.30
52787;DHT22;38661;53.152;5.846;2023-03-03T00:52:19;1.10;89.30
52787;DHT22;38661;53.152;5.846;2023-03-03T00:54:46;1.00;89.20
52787;DHT22;38661;53.152;5.846;2023-03-03T00:57:12;1.10;89.30
52787;DHT22;38661;53.152;5.846;2023-03-03T00:59:38;1.00;89.20
52787;DHT22;38661;53.152;5.846;2023-03-03T01:02:04;1.00;89.20
52787;DHT22;38661;53.152;5.846;2023-03-03T01:04:30;1.00;89.10
52787;DHT22;38661;53.152;5.846;2023-03-03T01:06:56;1.00;89.10
52787;DHT22;38661;53.152;5.846;2023-03-03T01:09:22;0.90;89.10
52787;DHT22;38661;53.152;5.846;2023-03-03T01:11:48;0.90;89.10
52787;DHT22;38661;53.152;5.846;2023-03-03T01:14:14;0.90;89.00
52787;DHT22;38661;53.152;5.846;2023-03-03T01:16:40;0.90;89.00
52787;DHT22;38661;53.152;5.846;2023-03-03T01:19:07;0.90;89.00
52787;DHT22;38661;53.152;5.846;2023-03-03T01:21:32;0.90;89.00
52787;DHT22;38661;53.152;5.846;2023-03-03T01:23:58;0.90;89.00
52787;DHT22;38661;53.152;5.846;2023-03-03T01:26:24;0.90;89.10
52787;DHT22;38661;53.152;5.846;2023-03-03T01:28:50;0.90;89.10
52787;DHT22;38661;53.152;5.846;2023-03-03T01:31:16;0.90;89.20
52787;DHT22;38661;53.152;5.846;2023-03-03T01:33:42;0.90;89.20
52787;DHT22;38661;53.152;5.846;2023-03-03T01:36:08;0.90;89.10
52787;DHT22;38661;53.152;5.846;2023-03-03T01:38:37;0.80;88.90
52787;DHT22;38661;53.152;5.846;2023-03-03T01:41:03;0.80;89.00
52787;DHT22;38661;53.152;5.846;2023-03-03T01:43:31;0.70;89.00
52787;DHT22;38661;53.152;5.846;2023-03-03T01:48:40;0.70;88.90
52787;DHT22;38661;53.152;5.846;2023-03-03T01:51:24;0.70;88.90
52787;DHT22;38661;53.152;5.846;2023-03-03T01:53:54;0.70;88.90
52787;DHT22;38661;53.152;5.846;2023-03-03T01:56:21;0.70;88.90
52787;DHT22;38661;53.152;5.846;2023-03-03T01:59:20;0.70;88.90
52787;DHT22;38661;53.152;5.846;2023-03-03T02:01:47;0.70;88.80
52787;DHT22;38661;53.152;5.846;2023-03-03T02:04:13;0.80;88.90
52787;DHT22;38661;53.152;5.846;2023-03-03T02:06:42;0.80;88.90
52787;DHT22;38661;53.152;5.846;2023-03-03T02:12:04;0.80;88.90
52787;DHT22;38661;53.152;5.846;2023-03-03T02:14:30;0.80;88.90
52787;DHT22;38661;53.152;5.846;2023-03-03T02:16:56;0.80;89.00
52787;DHT22;38661;53.152;5.846;2023-03-03T02:21:56;0.80;89.00
52787;DHT22;38661;53.152;5.846;2023-03-03T02:24:28;0.90;89.20
52787;DHT22;38661;53.152;5.846;2023-03-03T02:26:57;0.90;89.20
52787;DHT22;38661;53.152;5.846;2023-03-03T02:29:23;0.90;89.30
52787;DHT22;38661;53.152;5.846;2023-03-03T02:31:49;1.00;89.50
52787;DHT22;38661;53.152;5.846;2023-03-03T02:34:14;1.00;89.60
52787;DHT22;38661;53.152;5.846;2023-03-03T02:36:40;1.10;89.70
52787;DHT22;38661;53.152;5.846;2023-03-03T02:42:03;1.10;89.80
52787;DHT22;38661;53.152;5.846;2023-03-03T02:44:32;1.10;89.80
52787;DHT22;38661;53.152;5.846;2023-03-03T02:46:58;1.10;90.00
52787;DHT22;38661;53.152;5.846;2023-03-03T02:49:29;1.10;90.00
52787;DHT22;38661;53.152;5.846;2023-03-03T02:51:57;1.10;90.00
52787;DHT22;38661;53.152;5.846;2023-03-03T02:54:26;1.10;90.10
52787;DHT22;38661;53.152;5.846;2023-03-03T02:56:52;1.20;89.90
52787;DHT22;38661;53.152;5.846;2023-03-03T02:59:18;1.30;89.90
52787;DHT22;38661;53.152;5.846;2023-03-03T03:01:45;1.30;90.00
52787;DHT22;38661;53.152;5.846;2023-03-03T03:04:14;1.30;89.80
52787;DHT22;38661;53.152;5.846;2023-03-03T03:06:40;1.30;89.70
52787;DHT22;38661;53.152;5.846;2023-03-03T03:09:07;1.40;89.80
52787;DHT22;38661;53.152;5.846;2023-03-03T03:11:34;1.50;89.70
52787;DHT22;38661;53.152;5.846;2023-03-03T03:14:01;1.50;89.60
52787;DHT22;38661;53.152;5.846;2023-03-03T03:16:27;1.50;90.00
52787;DHT22;38661;53.152;5.846;2023-03-03T03:18:52;1.60;90.20
52787;DHT22;38661;53.152;5.846;2023-03-03T03:21:18;1.60;90.30
52787;DHT22;38661;53.152;5.846;2023-03-03T03:23:44;1.60;89.80
52787;DHT22;38661;53.152;5.846;2023-03-03T03:26:10;1.60;90.30
52787;DHT22;38661;53.152;5.846;2023-03-03T03:28:36;1.70;89.90
52787;DHT22;38661;53.152;5.846;2023-03-03T03:31:03;1.70;90.10
52787;DHT22;38661;53.152;5.846;2023-03-03T03:33:29;1.80;90.20
52787;DHT22;38661;53.152;5.846;2023-03-03T03:35:56;1.80;90.00
52787;DHT22;38661;53.152;5.846;2023-03-03T03:38:23;1.80;90.00
52787;DHT22;38661;53.152;5.846;2023-03-03T03:40:50;1.90;90.20
52787;DHT22;38661;53.152;5.846;2023-03-03T03:43:15;1.90;90.30
52787;DHT22;38661;53.152;5.846;2023-03-03T03:45:42;1.90;90.30
52787;DHT22;38661;53.152;5.846;2023-03-03T03:48:08;1.90;90.30
52787;DHT22;38661;53.152;5.846;2023-03-03T03:50:33;1.90;90.10
52787;DHT22;38661;53.152;5.846;2023-03-03T03:52:59;2.00;90.40
52787;DHT22;38661;53.152;5.846;2023-03-03T03:55:25;2.00;90.40
52787;DHT22;38661;53.152;5.846;2023-03-03T03:57:51;2.00;90.50
52787;DHT22;38661;53.152;5.846;2023-03-03T04:00:17;2.00;90.60
52787;DHT22;38661;53.152;5.846;2023-03-03T04:02:42;2.00;90.50
52787;DHT22;38661;53.152;5.846;2023-03-03T04:05:09;2.00;90.50
52787;DHT22;38661;53.152;5.846;2023-03-03T04:07:34;2.00;90.40
52787;DHT22;38661;53.152;5.846;2023-03-03T04:10:00;2.00;90.50
52787;DHT22;38661;53.152;5.846;2023-03-03T04:12:26;2.00;90.50
52787;DHT22;38661;53.152;5.846;2023-03-03T04:14:51;1.90;90.60
52787;DHT22;38661;53.152;5.846;2023-03-03T04:17:19;1.90;90.50
52787;DHT22;38661;53.152;5.846;2023-03-03T04:19:45;2.00;90.50
52787;DHT22;38661;53.152;5.846;2023-03-03T04:22:11;1.80;90.80
52787;DHT22;38661;53.152;5.846;2023-03-03T04:24:39;1.80;90.80
52787;DHT22;38661;53.152;5.846;2023-03-03T04:27:05;1.80;90.60
52787;DHT22;38661;53.152;5.846;2023-03-03T04:29:31;1.80;90.60
52787;DHT22;38661;53.152;5.846;2023-03-03T04:31:56;1.80;90.70
52787;DHT22;38661;53.152;5.846;2023-03-03T04:34:22;1.80;90.60
52787;DHT22;38661;53.152;5.846;2023-03-03T04:36:48;1.70;90.50
52787;DHT22;38661;53.152;5.846;2023-03-03T04:39:14;1.70;90.50
52787;DHT22;38661;53.152;5.846;2023-03-03T04:41:39;1.70;90.60
52787;DHT22;38661;53.152;5.846;2023-03-03T04:44:05;1.70;90.60
52787;DHT22;38661;53.152;5.846;2023-03-03T04:46:31;1.60;90.80
52787;DHT22;38661;53.152;5.846;2023-03-03T04:48:56;1.60;90.80
52787;DHT22;38661;53.152;5.846;2023-03-03T04:51:22;1.60;90.80
52787;DHT22;38661;53.152;5.846;2023-03-03T04:53:48;1.60;91.00
52787;DHT22;38661;53.152;5.846;2023-03-03T04:56:14;1.60;90.80
52787;DHT22;38661;53.152;5.846;2023-03-03T04:58:40;1.60;90.80
52787;DHT22;38661;53.152;5.846;2023-03-03T05:01:05;1.60;90.70
52787;DHT22;38661;53.152;5.846;2023-03-03T05:03:31;1.60;90.90
52787;DHT22;38661;53.152;5.846;2023-03-03T05:05:57;1.60;91.00
52787;DHT22;38661;53.152;5.846;2023-03-03T05:08:23;1.60;90.90
52787;DHT22;38661;53.152;5.846;2023-03-03T05:10:53;1.60;90.70
52787;DHT22;38661;53.152;5.846;2023-03-03T05:13:18;1.60;90.80
52787;DHT22;38661;53.152;5.846;2023-03-03T05:15:49;1.60;90.90
52787;DHT22;38661;53.152;5.846;2023-03-03T05:18:16;1.60;90.90
52787;DHT22;38661;53.152;5.846;2023-03-03T05:20:42;1.50;90.90
52787;DHT22;38661;53.152;5.846;2023-03-03T05:23:07;1.50;91.00
52787;DHT22;38661;53.152;5.846;2023-03-03T05:25:33;1.50;91.10
52787;DHT22;38661;53.152;5.846;2023-03-03T05:27:59;1.50;91.10
52787;DHT22;38661;53.152;5.846;2023-03-03T05:30:24;1.60;91.00
52787;DHT22;38661;53.152;5.846;2023-03-03T05:32:50;1.60;91.10
52787;DHT22;38661;53.152;5.846;2023-03-03T05:35:16;1.50;91.20
52787;DHT22;38661;53.152;5.846;2023-03-03T05:37:42;1.50;91.40
52787;DHT22;38661;53.152;5.846;2023-03-03T05:40:12;1.40;91.40
52787;DHT22;38661;53.152;5.846;2023-03-03T05:42:38;1.50;91.40
52787;DHT22;38661;53.152;5.846;2023-03-03T05:45:05;1.40;91.40
52787;DHT22;38661;53.152;5.846;2023-03-03T05:47:30;1.40;91.40
52787;DHT22;38661;53.152;5.846;2023-03-03T05:49:56;1.40;91.40
52787;DHT22;38661;53.152;5.846;2023-03-03T05:52:22;1.30;91.30
52787;DHT22;38661;53.152;5.846;2023-03-03T05:54:49;1.20;91.30
52787;DHT22;38661;53.152;5.846;2023-03-03T05:57:15;1.20;91.30
52787;DHT22;38661;53.152;5.846;2023-03-03T05:59:40;1.20;91.20
52787;DHT22;38661;53.152;5.846;2023-03-03T06:02:06;1.10;91.10
52787;DHT22;38661;53.152;5.846;2023-03-03T06:04:32;1.10;91.10
52787;DHT22;38661;53.152;5.846;2023-03-03T06:06:58;1.10;91.10
52787;DHT22;38661;53.152;5.846;2023-03-03T06:09:24;1.10;91.00
52787;DHT22;38661;53.152;5.846;2023-03-03T06:11:51;1.10;91.10
52787;DHT22;38661;53.152;5.846;2023-03-03T06:14:18;1.10;91.00
52787;DHT22;38661;53.152;5.846;2023-03-03T06:16:49;1.10;91.00
52787;DHT22;38661;53.152;5.846;2023-03-03T06:19:14;1.10;91.00
52787;DHT22;38661;53.152;5.846;2023-03-03T06:21:40;1.10;91.10
52787;DHT22;38661;53.152;5.846;2023-03-03T06:24:07;1.10;91.00
52787;DHT22;38661;53.152;5.846;2023-03-03T06:26:33;1.00;91.00
52787;DHT22;38661;53.152;5.846;2023-03-03T06:28:59;1.00;90.90
52787;DHT22;38661;53.152;5.846;2023-03-03T06:31:25;1.00;90.90
52787;DHT22;38661;53.152;5.846;2023-03-03T06:33:51;1.00;90.90
52787;DHT22;38661;53.152;5.846;2023-03-03T06:36:17;0.90;90.80
52787;DHT22;38661;53.152;5.846;2023-03-03T06:38:44;1.00;90.80
52787;DHT22;38661;53.152;5.846;2023-03-03T06:41:09;0.90;90.80
52787;DHT22;38661;53.152;5.846;2023-03-03T06:43:36;0.90;90.70
52787;DHT22;38661;53.152;5.846;2023-03-03T06:46:02;1.00;90.70
52787;DHT22;38661;53.152;5.846;2023-03-03T06:48:29;1.00;90.80
52787;DHT22;38661;53.152;5.846;2023-03-03T06:50:56;0.90;90.70
52787;DHT22;38661;53.152;5.846;2023-03-03T06:53:21;0.90;90.70
52787;DHT22;38661;53.152;5.846;2023-03-03T06:55:47;1.00;90.70
52787;DHT22;38661;53.152;5.846;2023-03-03T06:58:18;1.00;90.70
52787;DHT22;38661;53.152;5.846;2023-03-03T07:00:55;1.00;90.60
52787;DHT22;38661;53.152;5.846;2023-03-03T07:03:26;1.00;90.70
52787;DHT22;38661;53.152;5.846;2023-03-03T07:05:54;1.00;90.60
52787;DHT22;38661;53.152;5.846;2023-03-03T07:08:22;1.00;90.60
52787;DHT22;38661;53.152;5.846;2023-03-03T07:10:49;1.00;90.70
52787;DHT22;38661;53.152;5.846;2023-03-03T07:15:43;1.10;90.70
52787;DHT22;38661;53.152;5.846;2023-03-03T07:21:15;1.10;90.70
52787;DHT22;38661;53.152;5.846;2023-03-03T07:23:41;1.10;90.80
52787;DHT22;38661;53.152;5.846;2023-03-03T07:26:24;1.20;90.80
52787;DHT22;38661;53.152;5.846;2023-03-03T07:31:35;1.20;90.80
52787;DHT22;38661;53.152;5.846;2023-03-03T07:34:12;1.30;90.80
52787;DHT22;38661;53.152;5.846;2023-03-03T07:36:40;1.30;90.80
52787;DHT22;38661;53.152;5.846;2023-03-03T07:41:43;1.40;90.80
52787;DHT22;38661;53.152;5.846;2023-03-03T07:44:21;1.40;90.80
52787;DHT22;38661;53.152;5.846;2023-03-03T07:46:49;1.50;90.90
52787;DHT22;38661;53.152;5.846;2023-03-03T07:49:23;1.60;91.00
52787;DHT22;38661;53.152;5.846;2023-03-03T07:51:56;1.60;91.00
52787;DHT22;38661;53.152;5.846;2023-03-03T07:54:35;1.70;91.20
52787;DHT22;38661;53.152;5.846;2023-03-03T07:57:25;1.80;91.10
52787;DHT22;38661;53.152;5.846;2023-03-03T08:02:52;2.10;91.20
52787;DHT22;38661;53.152;5.846;2023-03-03T08:05:47;2.20;91.30
52787;DHT22;38661;53.152;5.846;2023-03-03T08:08:28;2.30;91.20
52787;DHT22;38661;53.152;5.846;2023-03-03T08:10:58;2.50;90.80
52787;DHT22;38661;53.152;5.846;2023-03-03T08:13:33;2.60;91.10
52787;DHT22;38661;53.152;5.846;2023-03-03T08:16:23;2.70;90.70
52787;DHT22;38661;53.152;5.846;2023-03-03T08:18:52;2.90;90.30
52787;DHT22;38661;53.152;5.846;2023-03-03T08:21:20;3.00;90.40
52787;DHT22;38661;53.152;5.846;2023-03-03T08:23:45;3.20;89.90
52787;DHT22;38661;53.152;5.846;2023-03-03T08:26:13;3.30;89.90
52787;DHT22;38661;53.152;5.846;2023-03-03T08:28:41;3.60;90.50
52787;DHT22;38661;53.152;5.846;2023-03-03T08:31:07;3.80;89.80
52787;DHT22;38661;53.152;5.846;2023-03-03T08:33:33;4.10;90.20
52787;DHT22;38661;53.152;5.846;2023-03-03T08:35:58;4.30;89.70
52787;DHT22;38661;53.152;5.846;2023-03-03T08:38:25;4.60;89.80
52787;DHT22;38661;53.152;5.846;2023-03-03T08:40:51;4.80;89.60
52787;DHT22;38661;53.152;5.846;2023-03-03T08:43:16;5.10;89.50
52787;DHT22;38661;53.152;5.846;2023-03-03T08:45:50;5.30;89.40
52787;DHT22;38661;53.152;5.846;2023-03-03T08:48:16;5.50;89.10
52787;DHT22;38661;53.152;5.846;2023-03-03T08:50:42;5.60;88.90
52787;DHT22;38661;53.152;5.846;2023-03-03T08:53:09;5.60;88.60
52787;DHT22;38661;53.152;5.846;2023-03-03T08:55:35;5.70;88.30
52787;DHT22;38661;53.152;5.846;2023-03-03T08:58:01;5.80;87.90
52787;DHT22;38661;53.152;5.846;2023-03-03T09:00:27;5.90;87.60
52787;DHT22;38661;53.152;5.846;2023-03-03T09:02:54;6.00;87.10
52787;DHT22;38661;53.152;5.846;2023-03-03T09:05:20;6.00;86.60
52787;DHT22;38661;53.152;5.846;2023-03-03T09:07:47;6.10;86.20
52787;DHT22;38661;53.152;5.846;2023-03-03T09:10:15;6.10;85.90
52787;DHT22;38661;53.152;5.846;2023-03-03T09:12:46;6.10;85.60
52787;DHT22;38661;53.152;5.846;2023-03-03T09:15:23;6.10;85.00
52787;DHT22;38661;53.152;5.846;2023-03-03T09:17:49;6.20;84.80
52787;DHT22;38661;53.152;5.846;2023-03-03T09:20:37;6.30;84.50
52787;DHT22;38661;53.152;5.846;2023-03-03T09:25:54;6.40;83.70
52787;DHT22;38661;53.152;5.846;2023-03-03T09:28:29;6.40;83.50
52787;DHT22;38661;53.152;5.846;2023-03-03T09:30:57;6.40;83.40
52787;DHT22;38661;53.152;5.846;2023-03-03T09:33:43;6.50;83.00
52787;DHT22;38661;53.152;5.846;2023-03-03T09:36:38;6.50;82.70
52787;DHT22;38661;53.152;5.846;2023-03-03T09:39:22;6.50;82.10
52787;DHT22;38661;53.152;5.846;2023-03-03T09:42:11;6.40;81.80
52787;DHT22;38661;53.152;5.846;2023-03-03T10:11:47;6.60;79.70
52787;DHT22;38661;53.152;5.846;2023-03-03T10:14:22;6.60;79.60
52787;DHT22;38661;53.152;5.846;2023-03-03T10:27:50;6.60;78.80
52787;DHT22;38661;53.152;5.846;2023-03-03T10:30:43;6.60;78.50
52787;DHT22;38661;53.152;5.846;2023-03-03T10:38:53;6.70;77.50
52787;DHT22;38661;53.152;5.846;2023-03-03T11:00:07;6.80;76.00
52787;DHT22;38661;53.152;5.846;2023-03-03T11:07:55;7.00;75.40
52787;DHT22;38661;53.152;5.846;2023-03-03T11:22:51;8.20;72.70
52787;DHT22;38661;53.152;5.846;2023-03-03T11:28:30;8.20;72.50
52787;DHT22;38661;53.152;5.846;2023-03-03T11:36:45;8.10;71.80
52787;DHT22;38661;53.152;5.846;2023-03-03T11:39:20;8.10;71.70
52787;DHT22;38661;53.152;5.846;2023-03-03T11:41:56;8.10;71.00
52787;DHT22;38661;53.152;5.846;2023-03-03T11:47:11;8.20;71.30
52787;DHT22;38661;53.152;5.846;2023-03-03T11:55:18;8.40;69.90
52787;DHT22;38661;53.152;5.846;2023-03-03T12:03:23;8.20;71.20
52787;DHT22;38661;53.152;5.846;2023-03-03T12:08:41;8.10;70.00
52787;DHT22;38661;53.152;5.846;2023-03-03T12:17:05;8.10;71.10
52787;DHT22;38661;53.152;5.846;2023-03-03T12:22:29;8.20;71.70
52787;DHT22;38661;53.152;5.846;2023-03-03T12:33:18;8.20;72.20
52787;DHT22;38661;53.152;5.846;2023-03-03T12:36:52;8.10;72.30
52787;DHT22;38661;53.152;5.846;2023-03-03T12:41:42;8.10;71.40
52787;DHT22;38661;53.152;5.846;2023-03-03T12:47:28;8.20;70.10
52787;DHT22;38661;53.152;5.846;2023-03-03T12:55:24;8.40;70.00
52787;DHT22;38661;53.152;5.846;2023-03-03T12:58:08;8.40;70.40
52787;DHT22;38661;53.152;5.846;2023-03-03T13:01:18;8.40;70.70
52787;DHT22;38661;53.152;5.846;2023-03-03T13:09:16;8.50;71.60
52787;DHT22;38661;53.152;5.846;2023-03-03T13:11:54;8.40;72.40
52787;DHT22;38661;53.152;5.846;2023-03-03T13:17:03;8.20;72.90
52787;DHT22;38661;53.152;5.846;2023-03-03T13:19:51;8.10;72.80
52787;DHT22;38661;53.152;5.846;2023-03-03T13:25:19;8.10;73.00
52787;DHT22;38661;53.152;5.846;2023-03-03T13:27:51;8.10;72.70
52787;DHT22;38661;53.152;5.846;2023-03-03T13:30:22;8.00;72.60
52787;DHT22;38661;53.152;5.846;2023-03-03T13:32:58;8.00;72.40
52787;DHT22;38661;53.152;5.846;2023-03-03T13:38:11;8.10;71.80
52787;DHT22;38661;53.152;5.846;2023-03-03T13:40:55;8.20;70.90
52787;DHT22;38661;53.152;5.846;2023-03-03T13:43:56;8.30;70.90
52787;DHT22;38661;53.152;5.846;2023-03-03T13:46:32;8.80;70.50
52787;DHT22;38661;53.152;5.846;2023-03-03T13:51:49;9.10;70.10
52787;DHT22;38661;53.152;5.846;2023-03-03T14:05:51;8.60;70.40
52787;DHT22;38661;53.152;5.846;2023-03-03T14:17:03;8.30;71.70
52787;DHT22;38661;53.152;5.846;2023-03-03T14:19:41;8.20;72.10
52787;DHT22;38661;53.152;5.846;2023-03-03T14:22:51;8.10;72.60
52787;DHT22;38661;53.152;5.846;2023-03-03T14:25:18;8.00;73.20
52787;DHT22;38661;53.152;5.846;2023-03-03T14:38:23;7.80;74.30
52787;DHT22;38661;53.152;5.846;2023-03-03T14:43:42;7.70;74.70
52787;DHT22;38661;53.152;5.846;2023-03-03T14:48:51;7.70;75.20
52787;DHT22;38661;53.152;5.846;2023-03-03T14:56:59;7.60;75.60
52787;DHT22;38661;53.152;5.846;2023-03-03T14:59:26;7.60;75.50
52787;DHT22;38661;53.152;5.846;2023-03-03T15:04:42;7.50;75.30
52787;DHT22;38661;53.152;5.846;2023-03-03T15:07:35;7.50;75.50
52787;DHT22;38661;53.152;5.846;2023-03-03T15:10:03;7.50;75.80
52787;DHT22;38661;53.152;5.846;2023-03-03T15:18:00;7.40;76.30
52787;DHT22;38661;53.152;5.846;2023-03-03T15:20:41;7.40;75.30
52787;DHT22;38661;53.152;5.846;2023-03-03T15:26:33;7.30;75.30
52787;DHT22;38661;53.152;5.846;2023-03-03T15:29:28;7.30;75.60
52787;DHT22;38661;53.152;5.846;2023-03-03T15:32:25;7.40;75.90
52787;DHT22;38661;53.152;5.846;2023-03-03T15:35:04;7.40;76.20
52787;DHT22;38661;53.152;5.846;2023-03-03T15:37:45;7.30;75.90
52787;DHT22;38661;53.152;5.846;2023-03-03T15:40:28;7.30;75.90
52787;DHT22;38661;53.152;5.846;2023-03-03T15:45:56;7.30;76.10
52787;DHT22;38661;53.152;5.846;2023-03-03T15:48:27;7.30;76.40
52787;DHT22;38661;53.152;5.846;2023-03-03T15:51:12;7.30;76.40
52787;DHT22;38661;53.152;5.846;2023-03-03T16:02:21;7.20;76.90
52787;DHT22;38661;53.152;5.846;2023-03-03T16:15:42;7.10;77.70
52787;DHT22;38661;53.152;5.846;2023-03-03T16:21:06;7.00;77.60
52787;DHT22;38661;53.152;5.846;2023-03-03T16:23:48;7.00;77.60
52787;DHT22;38661;53.152;5.846;2023-03-03T16:29:15;7.00;77.80
52787;DHT22;38661;53.152;5.846;2023-03-03T16:31:56;6.90;77.90
52787;DHT22;38661;53.152;5.846;2023-03-03T16:34:44;6.90;78.20
52787;DHT22;38661;53.152;5.846;2023-03-03T16:40:18;6.90;78.40
52787;DHT22;38661;53.152;5.846;2023-03-03T16:42:46;6.90;78.60
52787;DHT22;38661;53.152;5.846;2023-03-03T16:45:27;6.90;78.60
52787;DHT22;38661;53.152;5.846;2023-03-03T16:48:01;6.70;78.80
52787;DHT22;38661;53.152;5.846;2023-03-03T16:56:23;6.80;78.50
52787;DHT22;38661;53.152;5.846;2023-03-03T17:02:02;6.80;78.70
52787;DHT22;38661;53.152;5.846;2023-03-03T17:12:45;6.70;79.50
52787;DHT22;38661;53.152;5.846;2023-03-03T17:21:05;6.60;79.70
52787;DHT22;38661;53.152;5.846;2023-03-03T17:31:25;6.60;80.30
52787;DHT22;38661;53.152;5.846;2023-03-03T17:42:28;6.50;80.40
52787;DHT22;38661;53.152;5.846;2023-03-03T17:45:12;6.60;80.50
52787;DHT22;38661;53.152;5.846;2023-03-03T18:08:12;6.50;81.00
52787;DHT22;38661;53.152;5.846;2023-03-03T18:16:47;6.50;80.90
52787;DHT22;38661;53.152;5.846;2023-03-03T18:19:28;6.50;81.10
52787;DHT22;38661;53.152;5.846;2023-03-03T18:22:08;6.50;81.10
52787;DHT22;38661;53.152;5.846;2023-03-03T18:27:29;6.50;81.10
52787;DHT22;38661;53.152;5.846;2023-03-03T18:33:24;6.50;81.10
52787;DHT22;38661;53.152;5.846;2023-03-03T18:35:30;6.50;81.00
52787;DHT22;38661;53.152;5.846;2023-03-03T18:41:10;6.50;81.00
52787;DHT22;38661;53.152;5.846;2023-03-03T18:43:40;6.50;81.20
52787;DHT22;38661;53.152;5.846;2023-03-03T18:48:57;6.40;81.30
52787;DHT22;38661;53.152;5.846;2023-03-03T18:56:46;6.40;81.20
52787;DHT22;38661;53.152;5.846;2023-03-03T19:02:16;6.40;81.20
52787;DHT22;38661;53.152;5.846;2023-03-03T19:07:25;6.40;81.40
52787;DHT22;38661;53.152;5.846;2023-03-03T19:09:55;6.40;81.50
52787;DHT22;38661;53.152;5.846;2023-03-03T19:12:52;6.40;81.40
52787;DHT22;38661;53.152;5.846;2023-03-03T19:20:39;6.40;81.00
52787;DHT22;38661;53.152;5.846;2023-03-03T19:23:33;6.40;81.10
52787;DHT22;38661;53.152;5.846;2023-03-03T19:47:05;6.30;81.30
52787;DHT22;38661;53.152;5.846;2023-03-03T19:57:43;6.30;81.80
52787;DHT22;38661;53.152;5.846;2023-03-03T20:06:47;6.30;81.90
52787;DHT22;38661;53.152;5.846;2023-03-03T20:09:03;6.30;81.90
52787;DHT22;38661;53.152;5.846;2023-03-03T20:14:59;6.30;81.60
52787;DHT22;38661;53.152;5.846;2023-03-03T20:17:41;6.30;81.70
52787;DHT22;38661;53.152;5.846;2023-03-03T20:20:23;6.30;81.80
52787;DHT22;38661;53.152;5.846;2023-03-03T20:23:20;6.30;81.70
52787;DHT22;38661;53.152;5.846;2023-03-03T20:25:54;6.30;81.80
52787;DHT22;38661;53.152;5.846;2023-03-03T20:37:01;6.30;82.10
52787;DHT22;38661;53.152;5.846;2023-03-03T20:42:24;6.20;82.10
52787;DHT22;38661;53.152;5.846;2023-03-03T20:50:33;6.20;82.30
52787;DHT22;38661;53.152;5.846;2023-03-03T20:56:27;6.20;82.60
52787;DHT22;38661;53.152;5.846;2023-03-03T20:59:07;6.20;82.60
52787;DHT22;38661;53.152;5.846;2023-03-03T21:01:55;6.20;82.80
52787;DHT22;38661;53.152;5.846;2023-03-03T21:04:28;6.20;82.70
52787;DHT22;38661;53.152;5.846;2023-03-03T21:06:55;6.30;82.70
52787;DHT22;38661;53.152;5.846;2023-03-03T21:09:36;6.20;82.80
52787;DHT22;38661;53.152;5.846;2023-03-03T21:12:10;6.20;82.70
52787;DHT22;38661;53.152;5.846;2023-03-03T21:14:58;6.20;82.70
52787;DHT22;38661;53.152;5.846;2023-03-03T21:17:26;6.20;82.80
52787;DHT22;38661;53.152;5.846;2023-03-03T21:19:52;6.30;82.80
52787;DHT22;38661;53.152;5.846;2023-03-03T21:22:18;6.20;82.90
52787;DHT22;38661;53.152;5.846;2023-03-03T21:24:55;6.20;82.80
52787;DHT22;38661;53.152;5.846;2023-03-03T21:30:13;6.20;82.60
52787;DHT22;38661;53.152;5.846;2023-03-03T21:32:41;6.30;82.50
52787;DHT22;38661;53.152;5.846;2023-03-03T21:35:18;6.30;82.50
52787;DHT22;38661;53.152;5.846;2023-03-03T21:37:53;6.30;82.40
52787;DHT22;38661;53.152;5.846;2023-03-03T21:40:24;6.30;82.10
52787;DHT22;38661;53.152;5.846;2023-03-03T21:42:52;6.30;82.00
52787;DHT22;38661;53.152;5.846;2023-03-03T21:45:19;6.30;82.00
52787;DHT22;38661;53.152;5.846;2023-03-03T21:47:46;6.30;81.90
52787;DHT22;38661;53.152;5.846;2023-03-03T21:50:12;6.20;82.00
52787;DHT22;38661;53.152;5.846;2023-03-03T21:52:37;6.30;81.90
52787;DHT22;38661;53.152;5.846;2023-03-03T21:55:03;6.20;81.90
52787;DHT22;38661;53.152;5.846;2023-03-03T21:57:29;6.20;82.10
52787;DHT22;38661;53.152;5.846;2023-03-03T21:59:55;6.20;82.30
52787;DHT22;38661;53.152;5.846;2023-03-03T22:02:21;6.20;82.50
52787;DHT22;38661;53.152;5.846;2023-03-03T22:04:46;6.20;82.50
52787;DHT22;38661;53.152;5.846;2023-03-03T22:07:12;6.10;82.70
52787;DHT22;38661;53.152;5.846;2023-03-03T22:09:38;6.10;82.80
52787;DHT22;38661;53.152;5.846;2023-03-03T22:12:04;6.20;82.90
52787;DHT22;38661;53.152;5.846;2023-03-03T22:14:30;6.10;82.90
52787;DHT22;38661;53.152;5.846;2023-03-03T22:16:56;6.10;83.10
52787;DHT22;38661;53.152;5.846;2023-03-03T22:19:22;6.10;83.00
52787;DHT22;38661;53.152;5.846;2023-03-03T22:21:48;6.10;83.00
52787;DHT22;38661;53.152;5.846;2023-03-03T22:24:14;6.10;83.00
52787;DHT22;38661;53.152;5.846;2023-03-03T22:26:40;6.20;82.90
52787;DHT22;38661;53.152;5.846;2023-03-03T22:29:07;6.10;82.70
52787;DHT22;38661;53.152;5.846;2023-03-03T22:31:33;6.10;82.50
52787;DHT22;38661;53.152;5.846;2023-03-03T22:33:59;6.10;82.30
52787;DHT22;38661;53.152;5.846;2023-03-03T22:36:25;6.10;82.10
52787;DHT22;38661;53.152;5.846;2023-03-03T22:38:51;6.10;82.00
52787;DHT22;38661;53.152;5.846;2023-03-03T22:41:17;6.10;81.80
52787;DHT22;38661;53.152;5.846;2023-03-03T22:43:43;6.10;81.70
52787;DHT22;38661;53.152;5.846;2023-03-03T22:46:09;6.10;81.60
52787;DHT22;38661;53.152;5.846;2023-03-03T22:48:35;6.10;81.50
52787;DHT22;38661;53.152;5.846;2023-03-03T22:51:00;6.20;81.20
52787;DHT22;38661;53.152;5.846;2023-03-03T22:53:26;6.10;81.00
52787;DHT22;38661;53.152;5.846;2023-03-03T22:55:52;6.10;81.20
52787;DHT22;38661;53.152;5.846;2023-03-03T22:58:19;6.10;81.30
52787;DHT22;38661;53.152;5.846;2023-03-03T23:00:47;6.10;81.40
52787;DHT22;38661;53.152;5.846;2023-03-03T23:03:13;6.10;81.40
52787;DHT22;38661;53.152;5.846;2023-03-03T23:05:39;6.10;81.50
52787;DHT22;38661;53.152;5.846;2023-03-03T23:08:07;6.10;81.50
52787;DHT22;38661;53.152;5.846;2023-03-03T23:10:34;6.10;81.30